createdAt,value
2023-03-15T00:01:14.776Z,97486.88
2023-03-15T00:03:43.425Z,97488.97
2023-03-15T00:06:11.501Z,97494.53
2023-03-15T00:08:40.193Z,97503.00
2023-03-15T00:11:07.865Z,97500.19
2023-03-15T00:13:34.994Z,97512.78
2023-03-15T00:16:05.752Z,97516.19
2023-03-15T00:18:33.105Z,97508.59
2023-03-15T00:21:00.309Z,97544.91
2023-03-15T00:23:27.426Z,97527.09
2023-03-15T00:25:55.354Z,97516.50
2023-03-15T00:28:23.016Z,97534.09
2023-03-15T00:31:03.653Z,97514.88
2023-03-15T00:33:34.896Z,97512.88
2023-03-15T00:36:07.017Z,97531.81
2023-03-15T00:38:35.737Z,97515.19
2023-03-15T00:41:07.191Z,97546.13
2023-03-15T00:43:35.135Z,97511.41
2023-03-15T00:46:02.568Z,97498.50
2023-03-15T00:48:29.937Z,97496.22
2023-03-15T00:51:09.680Z,97499.78
2023-03-15T00:53:39.795Z,97502.03
2023-03-15T00:56:10.865Z,97494.13
2023-03-15T00:58:38.481Z,97482.44
2023-03-15T01:01:17.358Z,97497.44
2023-03-15T01:03:45.087Z,97498.34
2023-03-15T01:06:24.112Z,97493.13
2023-03-15T01:08:52.199Z,97491.78
2023-03-15T01:11:22.374Z,97506.59
2023-03-15T01:13:49.491Z,97504.66
2023-03-15T01:16:16.920Z,97496.16
2023-03-15T01:18:44.636Z,97492.09
2023-03-15T01:21:14.204Z,97491.41
2023-03-15T01:23:41.794Z,97493.81
2023-03-15T01:26:12.086Z,97482.88
2023-03-15T01:28:39.144Z,97491.41
2023-03-15T01:31:06.750Z,97471.41
2023-03-15T01:33:33.960Z,97469.91
2023-03-15T01:36:03.293Z,97467.97
2023-03-15T01:38:31.465Z,97471.41
2023-03-15T01:40:59.178Z,97477.44
2023-03-15T01:43:28.156Z,97477.22
2023-03-15T01:46:01.697Z,97472.00
2023-03-15T01:48:32.496Z,97476.53
2023-03-15T01:51:03.570Z,97474.22
2023-03-15T01:53:32.662Z,97461.19
2023-03-15T01:56:01.383Z,97474.53
2023-03-15T01:58:29.575Z,97485.25
2023-03-15T02:00:57.324Z,97475.66
2023-03-15T02:03:28.839Z,97493.66
2023-03-15T02:06:03.702Z,97497.25
2023-03-15T02:08:40.077Z,97491.66
2023-03-15T02:11:07.415Z,97480.78
2023-03-15T02:13:36.062Z,97491.34
2023-03-15T02:16:06.982Z,97489.03
2023-03-15T02:18:37.400Z,97501.16
2023-03-15T02:21:23.088Z,97500.34
2023-03-15T02:24:18.837Z,97495.38
2023-03-15T02:26:51.366Z,97488.69
2023-03-15T02:29:19.696Z,97522.84
2023-03-15T02:31:47.964Z,97501.00
2023-03-15T02:34:15.107Z,97511.59
2023-03-15T02:36:42.527Z,97489.94
2023-03-15T02:39:17.917Z,97485.97
2023-03-15T02:41:49.869Z,97497.91
2023-03-15T02:44:17.418Z,97500.50
2023-03-15T02:46:46.370Z,97507.22
2023-03-15T02:49:17.046Z,97500.13
2023-03-15T02:51:44.174Z,97507.13
2023-03-15T02:54:11.541Z,97502.06
2023-03-15T02:56:38.920Z,97503.19
2023-03-15T02:59:06.049Z,97501.00
2023-03-15T03:01:37.404Z,97511.56
2023-03-15T03:04:04.922Z,97521.81
2023-03-15T03:06:32.088Z,97516.75
2023-03-15T03:08:59.951Z,97522.97
2023-03-15T03:11:27.645Z,97515.50
2023-03-15T03:13:56.153Z,97521.16
2023-03-15T03:16:23.352Z,97535.69
2023-03-15T03:18:52.079Z,97514.44
2023-03-15T03:21:19.448Z,97515.16
2023-03-15T03:23:46.629Z,97516.03
2023-03-15T03:26:16.852Z,97515.72
2023-03-15T03:28:48.727Z,97497.38
2023-03-15T03:31:19.300Z,97508.34
2023-03-15T03:33:47.636Z,97496.50
2023-03-15T03:36:15.323Z,97500.09
2023-03-15T03:38:44.105Z,97504.75
2023-03-15T03:41:12.415Z,97503.66
2023-03-15T03:43:40.299Z,97501.78
2023-03-15T03:46:07.964Z,97502.09
2023-03-15T03:48:35.868Z,97490.16
2023-03-15T03:51:03.012Z,97503.19
2023-03-15T03:53:30.607Z,97505.12
2023-03-15T03:55:57.763Z,97506.66
2023-03-15T03:58:25.001Z,97489.53
2023-03-15T04:00:56.380Z,97494.22
2023-03-15T04:03:27.249Z,97491.25
2023-03-15T04:05:56.024Z,97509.88
2023-03-15T04:08:24.574Z,97522.06
2023-03-15T04:10:57.225Z,97535.91
2023-03-15T04:13:25.709Z,97526.88
2023-03-15T04:15:57.675Z,97535.41
2023-03-15T04:18:26.395Z,97542.53
2023-03-15T04:20:54.899Z,97534.06
2023-03-15T04:23:23.647Z,97532.56
2023-03-15T04:25:52.724Z,97552.72
2023-03-15T04:28:22.820Z,97540.53
2023-03-15T04:30:50.689Z,97550.38
2023-03-15T04:33:19.216Z,97551.34
2023-03-15T04:35:46.746Z,97554.63
2023-03-15T04:38:15.462Z,97573.62
2023-03-15T04:40:43.151Z,97574.59
2023-03-15T04:43:11.236Z,97561.19
2023-03-15T04:45:38.858Z,97571.84
2023-03-15T04:48:06.850Z,97581.12
2023-03-15T04:50:35.681Z,97578.22
2023-03-15T04:53:03.850Z,97579.88
2023-03-15T04:55:33.903Z,97593.41
2023-03-15T04:58:04.119Z,97592.87
2023-03-15T05:00:31.698Z,97602.13
2023-03-15T05:02:59.363Z,97598.03
2023-03-15T05:05:29.395Z,97596.09
2023-03-15T05:07:56.675Z,97593.09
2023-03-15T05:10:25.315Z,97598.94
2023-03-15T05:12:52.753Z,97606.72
2023-03-15T05:15:20.273Z,97602.06
2023-03-15T05:17:48.894Z,97594.97
2023-03-15T05:20:16.561Z,97596.41
2023-03-15T05:22:44.381Z,97599.94
2023-03-15T05:25:12.598Z,97592.69
2023-03-15T05:27:40.303Z,97593.59
2023-03-15T05:30:08.595Z,97581.34
2023-03-15T05:32:39.516Z,97579.75
2023-03-15T05:35:10.873Z,97572.34
2023-03-15T05:37:40.481Z,97575.47
2023-03-15T05:40:08.980Z,97581.88
2023-03-15T05:42:37.042Z,97569.53
2023-03-15T05:45:05.767Z,97553.53
2023-03-15T05:47:34.966Z,97570.03
2023-03-15T05:50:02.398Z,97574.69
2023-03-15T05:52:30.452Z,97572.09
2023-03-15T05:55:00.118Z,97567.78
2023-03-15T05:57:27.558Z,97576.84
2023-03-15T05:59:55.192Z,97599.97
2023-03-15T06:02:22.820Z,97572.16
2023-03-15T06:04:51.347Z,97572.16
2023-03-15T06:07:19.204Z,97578.28
2023-03-15T06:09:46.446Z,97562.72
2023-03-15T06:12:14.078Z,97585.34
2023-03-15T06:14:41.457Z,97578.78
2023-03-15T06:17:09.116Z,97561.47
2023-03-15T06:19:38.071Z,97578.97
2023-03-15T06:22:05.321Z,97569.66
2023-03-15T06:24:33.144Z,97592.66
2023-03-15T06:27:00.676Z,97574.84
2023-03-15T06:29:28.004Z,97580.94
2023-03-15T06:31:57.331Z,97568.09
2023-03-15T06:34:25.186Z,97572.47
2023-03-15T06:36:52.961Z,97570.88
2023-03-15T06:39:20.382Z,97592.44
2023-03-15T06:41:48.400Z,97580.62
2023-03-15T06:44:15.994Z,97584.59
2023-03-15T06:46:43.946Z,97572.31
2023-03-15T06:49:11.756Z,97592.25
2023-03-15T06:51:39.418Z,97601.03
2023-03-15T06:54:06.709Z,97601.41
2023-03-15T06:56:37.459Z,97603.47
2023-03-15T06:59:04.878Z,97588.31
2023-03-15T07:01:32.009Z,97622.03
2023-03-15T07:03:59.399Z,97614.97
2023-03-15T07:06:28.301Z,97597.75
2023-03-15T07:08:55.441Z,97636.66
2023-03-15T07:11:23.033Z,97612.38
2023-03-15T07:13:52.737Z,97627.41
2023-03-15T07:16:19.943Z,97642.97
2023-03-15T07:18:47.619Z,97635.72
2023-03-15T07:21:14.709Z,97624.50
2023-03-15T07:23:41.823Z,97637.16
2023-03-15T07:26:09.231Z,97623.25
2023-03-15T07:28:36.777Z,97642.22
2023-03-15T07:31:05.326Z,97656.59
2023-03-15T07:33:33.935Z,97646.91
2023-03-15T07:36:04.097Z,97640.38
2023-03-15T07:38:31.910Z,97634.22
2023-03-15T07:41:02.156Z,97668.34
2023-03-15T07:43:29.468Z,97642.84
2023-03-15T07:45:58.876Z,97653.87
2023-03-15T07:48:26.519Z,97668.19
2023-03-15T07:50:53.504Z,97678.56
2023-03-15T07:53:20.758Z,97668.19
2023-03-15T07:55:48.415Z,97683.72
2023-03-15T07:58:15.996Z,97700.47
2023-03-15T08:00:44.008Z,97703.97
2023-03-15T08:03:11.677Z,97706.81
2023-03-15T08:05:38.864Z,97708.47
2023-03-15T08:08:06.284Z,97700.31
2023-03-15T08:10:33.726Z,97716.44
2023-03-15T08:13:00.860Z,97717.13
2023-03-15T08:15:28.185Z,97718.34
2023-03-15T08:17:55.571Z,97719.56
2023-03-15T08:20:22.688Z,97721.78
2023-03-15T08:22:50.236Z,97718.94
2023-03-15T08:25:21.424Z,97713.66
2023-03-15T08:27:49.125Z,97732.38
2023-03-15T08:30:17.695Z,97741.62
2023-03-15T08:32:46.532Z,97733.19
2023-03-15T08:35:16.151Z,97756.53
2023-03-15T08:37:47.947Z,97754.78
2023-03-15T08:40:23.851Z,97750.84
2023-03-15T08:42:51.448Z,97760.16
2023-03-15T08:45:19.426Z,97761.19
2023-03-15T08:47:46.792Z,97765.22
2023-03-15T08:50:15.233Z,97777.56
2023-03-15T08:52:43.227Z,97776.06
2023-03-15T08:55:10.958Z,97776.75
2023-03-15T08:57:38.579Z,97801.66
2023-03-15T09:00:08.272Z,97794.78
2023-03-15T09:02:36.584Z,97798.81
2023-03-15T09:05:07.031Z,97809.06
2023-03-15T09:07:34.632Z,97825.25
2023-03-15T09:10:04.133Z,97812.25
2023-03-15T09:12:32.425Z,97814.13
2023-03-15T09:14:59.826Z,97803.69
2023-03-15T09:17:27.822Z,97812.50
2023-03-15T09:19:54.955Z,97819.69
2023-03-15T09:22:38.111Z,97804.19
2023-03-15T09:25:06.826Z,97828.09
2023-03-15T09:27:34.308Z,97818.12
2023-03-15T09:30:01.724Z,97836.19
2023-03-15T09:32:28.843Z,97832.66
2023-03-15T09:34:56.297Z,97841.00
2023-03-15T09:37:23.436Z,97838.34
2023-03-15T09:39:51.071Z,97848.50
2023-03-15T09:42:28.654Z,97855.66
2023-03-15T09:45:13.760Z,97854.25
2023-03-15T09:47:50.310Z,97856.28
2023-03-15T09:50:25.019Z,97849.19
2023-03-15T09:52:57.891Z,97847.03
2023-03-15T09:55:29.004Z,97840.66
2023-03-15T09:58:05.346Z,97845.72
2023-03-15T10:01:19.553Z,97853.06
2023-03-15T10:03:50.050Z,97852.88
2023-03-15T10:06:37.884Z,97854.66
2023-03-15T10:09:22.382Z,97868.41
2023-03-15T10:12:21.842Z,97865.81
2023-03-15T10:15:13.867Z,97852.44
2023-03-15T10:17:59.223Z,97872.44
2023-03-15T10:20:36.035Z,97876.78
2023-03-15T10:23:06.722Z,97875.94
2023-03-15T10:25:34.421Z,97869.34
2023-03-15T10:28:31.259Z,97870.38
2023-03-15T10:31:02.313Z,97889.63
2023-03-15T10:33:38.014Z,97891.97
2023-03-15T10:36:19.105Z,97895.94
2023-03-15T10:38:47.129Z,97898.09
2023-03-15T10:41:29.134Z,97884.84
2023-03-15T10:44:00.485Z,97912.56
2023-03-15T10:46:28.104Z,97904.00
2023-03-15T10:49:00.000Z,97908.50
2023-03-15T10:51:32.970Z,97902.06
2023-03-15T10:54:11.685Z,97911.59
2023-03-15T10:56:51.743Z,97899.50
2023-03-15T10:59:24.545Z,97917.56
2023-03-15T11:02:14.090Z,97923.41
2023-03-15T11:04:42.306Z,97910.19
2023-03-15T11:07:10.652Z,97911.34
2023-03-15T11:09:43.726Z,97906.59
2023-03-15T11:12:32.073Z,97910.00
2023-03-15T11:15:04.217Z,97920.59
2023-03-15T11:17:35.165Z,97922.47
2023-03-15T11:20:13.520Z,97923.78
2023-03-15T11:22:41.002Z,97928.63
2023-03-15T11:25:15.542Z,97931.88
2023-03-15T11:27:44.371Z,97938.09
2023-03-15T11:30:16.151Z,97931.44
2023-03-15T11:32:45.679Z,97935.44
2023-03-15T11:35:17.768Z,97945.06
2023-03-15T11:37:58.571Z,97931.31
2023-03-15T11:40:33.849Z,97936.81
2023-03-15T11:43:05.143Z,97934.06
2023-03-15T11:45:51.224Z,97930.72
2023-03-15T11:48:40.975Z,97927.25
2023-03-15T11:51:08.866Z,97938.09
2023-03-15T11:53:41.734Z,97948.28
2023-03-15T11:56:29.439Z,97950.00
2023-03-15T11:59:12.903Z,97944.25
2023-03-15T12:01:48.447Z,97956.41
2023-03-15T12:04:36.009Z,97971.91
2023-03-15T12:07:27.787Z,97979.97
2023-03-15T12:10:18.691Z,97959.03
2023-03-15T12:12:48.076Z,97967.09
2023-03-15T12:15:15.910Z,97974.63
2023-03-15T12:17:55.278Z,97986.91
2023-03-15T12:20:38.796Z,97973.69
2023-03-15T12:23:12.600Z,97973.47
2023-03-15T12:26:03.276Z,97980.44
2023-03-15T12:28:35.517Z,97963.06
2023-03-15T12:31:08.338Z,97979.22
2023-03-15T12:33:45.372Z,97961.09
2023-03-15T12:36:32.224Z,97960.84
2023-03-15T12:39:36.686Z,97979.91
2023-03-15T12:42:05.001Z,97975.59
2023-03-15T12:44:32.030Z,97962.97
2023-03-15T12:47:00.540Z,97971.25
2023-03-15T12:49:32.282Z,97975.81
2023-03-15T12:51:59.561Z,97977.84
2023-03-15T12:54:47.151Z,98001.72
2023-03-15T12:57:21.484Z,97999.81
2023-03-15T12:59:54.056Z,98001.06
2023-03-15T13:02:43.420Z,97987.50
2023-03-15T13:05:31.185Z,97984.22
2023-03-15T13:08:22.035Z,97990.22
2023-03-15T13:11:11.816Z,98000.78
2023-03-15T13:14:01.013Z,98007.88
2023-03-15T13:16:53.288Z,98007.44
2023-03-15T13:19:28.915Z,98015.16
2023-03-15T13:22:28.317Z,98008.16
2023-03-15T13:25:01.503Z,98055.75
2023-03-15T13:28:01.752Z,98020.13
2023-03-15T13:30:40.500Z,98033.44
2023-03-15T13:33:22.530Z,98025.09
2023-03-15T13:36:01.641Z,98031.50
2023-03-15T13:38:56.392Z,98047.81
2023-03-15T13:41:26.278Z,98043.13
2023-03-15T13:43:55.671Z,98053.91
2023-03-15T13:46:24.619Z,98036.44
2023-03-15T13:48:53.966Z,98039.56
2023-03-15T13:51:24.655Z,98054.12
2023-03-15T13:53:55.194Z,98062.84
2023-03-15T13:56:37.382Z,98056.38
2023-03-15T13:59:12.311Z,98065.59
2023-03-15T14:01:42.359Z,98063.59
2023-03-15T14:04:17.601Z,98065.22
2023-03-15T14:06:48.116Z,98062.63
2023-03-15T14:09:23.941Z,98086.44
2023-03-15T14:12:05.812Z,98072.72
2023-03-15T14:14:37.251Z,98064.63
2023-03-15T14:17:18.699Z,98077.31
2023-03-15T14:19:54.258Z,98073.31
2023-03-15T14:22:21.849Z,98088.22
2023-03-15T14:24:51.671Z,98063.34
2023-03-15T14:27:21.450Z,98080.78
2023-03-15T14:29:53.884Z,98095.97
2023-03-15T14:32:33.063Z,98096.66
2023-03-15T14:35:18.221Z,98111.56
2023-03-15T14:37:46.104Z,98100.72
2023-03-15T14:40:16.383Z,98100.28
2023-03-15T14:42:47.595Z,98111.06
2023-03-15T14:45:17.668Z,98113.91
2023-03-15T14:47:56.207Z,98104.84
2023-03-15T14:50:28.895Z,98110.94
2023-03-15T14:52:57.968Z,98116.84
2023-03-15T14:55:30.672Z,98123.41
2023-03-15T14:57:57.768Z,98109.16
2023-03-15T15:00:25.096Z,98132.75
2023-03-15T15:02:55.013Z,98128.72
2023-03-15T15:05:27.918Z,98150.91
2023-03-15T15:08:12.862Z,98124.13
2023-03-15T15:10:41.592Z,98118.34
2023-03-15T15:13:18.155Z,98160.59
2023-03-15T15:15:55.071Z,98152.12
2023-03-15T15:18:25.919Z,98157.44
2023-03-15T15:20:55.517Z,98161.34
2023-03-15T15:23:28.780Z,98159.19
2023-03-15T15:25:58.901Z,98151.38
2023-03-15T15:28:35.424Z,98169.25
2023-03-15T15:31:06.351Z,98166.53
2023-03-15T15:33:34.134Z,98174.56
2023-03-15T15:36:01.838Z,98185.00
2023-03-15T15:38:38.422Z,98194.19
2023-03-15T15:41:12.205Z,98184.75
2023-03-15T15:43:39.667Z,98207.31
2023-03-15T15:46:09.690Z,98183.09
2023-03-15T15:48:37.018Z,98192.06
2023-03-15T15:51:17.232Z,98187.72
2023-03-15T15:53:44.322Z,98196.31
2023-03-15T15:56:12.660Z,98211.09
2023-03-15T15:58:41.855Z,98199.41
2023-03-15T16:01:13.553Z,98218.28
2023-03-15T16:03:41.734Z,98208.63
2023-03-15T16:06:20.027Z,98207.91
2023-03-15T16:08:49.703Z,98217.34
2023-03-15T16:11:17.256Z,98224.69
2023-03-15T16:13:45.953Z,98219.13
2023-03-15T16:16:15.512Z,98226.91
2023-03-15T16:18:43.835Z,98224.06
2023-03-15T16:21:28.384Z,98242.94
2023-03-15T16:23:59.895Z,98245.66
2023-03-15T16:26:27.352Z,98248.03
2023-03-15T16:28:54.527Z,98256.03
2023-03-15T16:31:22.192Z,98254.25
2023-03-15T16:33:50.064Z,98243.25
2023-03-15T16:36:19.607Z,98250.56
2023-03-15T16:38:47.619Z,98246.28
2023-03-15T16:41:19.299Z,98261.06
2023-03-15T16:43:49.077Z,98259.94
2023-03-15T16:46:16.978Z,98273.25
2023-03-15T16:48:44.117Z,98270.91
2023-03-15T16:51:13.657Z,98269.78
2023-03-15T16:53:44.643Z,98265.28
2023-03-15T16:56:13.595Z,98283.53
2023-03-15T16:58:42.611Z,98281.97
2023-03-15T17:01:11.092Z,98282.22
2023-03-15T17:03:38.751Z,98305.50
2023-03-15T17:06:07.689Z,98289.19
2023-03-15T17:08:35.038Z,98293.69
2023-03-15T17:11:02.718Z,98304.88
2023-03-15T17:13:30.397Z,98306.53
2023-03-15T17:15:57.578Z,98318.38
2023-03-15T17:18:26.824Z,98311.19
2023-03-15T17:20:54.168Z,98320.69
2023-03-15T17:23:21.884Z,98321.72
2023-03-15T17:25:51.226Z,98331.28
2023-03-15T17:28:18.389Z,98319.03
2023-03-15T17:30:45.805Z,98326.09
2023-03-15T17:33:13.405Z,98337.59
2023-03-15T17:35:43.920Z,98332.50
2023-03-15T17:38:24.527Z,98327.44
2023-03-15T17:40:53.485Z,98333.53
2023-03-15T17:43:21.275Z,98342.16
2023-03-15T17:45:48.816Z,98348.28
2023-03-15T17:48:16.480Z,98362.16
2023-03-15T17:50:44.838Z,98367.97
2023-03-15T17:53:17.531Z,98376.87
2023-03-15T17:55:46.606Z,98382.50
2023-03-15T17:58:23.076Z,98382.69
2023-03-15T18:00:51.694Z,98392.13
2023-03-15T18:03:19.421Z,98395.56
2023-03-15T18:05:47.614Z,98389.94
2023-03-15T18:08:18.670Z,98390.78
2023-03-15T18:10:47.166Z,98389.22
2023-03-15T18:13:19.876Z,98400.94
2023-03-15T18:15:49.330Z,98405.09
2023-03-15T18:18:17.370Z,98412.03
2023-03-15T18:20:45.691Z,98400.50
2023-03-15T18:23:16.431Z,98408.50
2023-03-15T18:25:43.794Z,98417.94
2023-03-15T18:28:11.384Z,98414.41
2023-03-15T18:30:39.717Z,98430.06
2023-03-15T18:33:07.118Z,98419.59
2023-03-15T18:35:36.723Z,98419.81
2023-03-15T18:38:06.014Z,98426.03
2023-03-15T18:40:34.396Z,98440.66
2023-03-15T18:43:02.131Z,98428.81
2023-03-15T18:45:35.358Z,98423.84
2023-03-15T18:48:02.622Z,98452.47
2023-03-15T18:50:30.556Z,98440.63
2023-03-15T18:52:58.346Z,98443.31
2023-03-15T18:55:25.938Z,98442.91
2023-03-15T18:57:55.704Z,98452.63
2023-03-15T19:00:27.077Z,98449.62
2023-03-15T19:02:56.437Z,98460.41
2023-03-15T19:05:24.372Z,98453.75
2023-03-15T19:07:51.600Z,98460.91
2023-03-15T19:10:20.558Z,98468.97
2023-03-15T19:12:48.526Z,98462.53
2023-03-15T19:15:17.382Z,98471.50
2023-03-15T19:17:46.737Z,98474.31
2023-03-15T19:20:15.952Z,98476.37
2023-03-15T19:22:46.110Z,98481.19
2023-03-15T19:25:13.997Z,98477.03
2023-03-15T19:27:42.112Z,98478.66
2023-03-15T19:30:17.017Z,98486.41
2023-03-15T19:32:48.104Z,98485.75
2023-03-15T19:35:17.661Z,98486.50
2023-03-15T19:37:45.614Z,98507.78
2023-03-15T19:40:15.664Z,98503.34
2023-03-15T19:42:42.880Z,98516.00
2023-03-15T19:45:11.143Z,98510.81
2023-03-15T19:47:38.360Z,98507.41
2023-03-15T19:50:06.280Z,98519.44
2023-03-15T19:52:34.146Z,98523.41
2023-03-15T19:55:01.444Z,98524.31
2023-03-15T19:57:28.541Z,98530.50
2023-03-15T19:59:55.965Z,98517.09
2023-03-15T20:02:23.105Z,98524.78
2023-03-15T20:04:50.520Z,98525.72
2023-03-15T20:07:17.850Z,98525.81
2023-03-15T20:09:45.191Z,98536.59
2023-03-15T20:12:13.162Z,98534.38
2023-03-15T20:14:40.748Z,98545.09
2023-03-15T20:17:07.868Z,98539.72
2023-03-15T20:19:37.108Z,98539.63
2023-03-15T20:22:04.269Z,98539.44
2023-03-15T20:24:31.555Z,98545.47
2023-03-15T20:26:58.923Z,98549.50
2023-03-15T20:29:26.025Z,98546.00
2023-03-15T20:31:53.457Z,98547.84
2023-03-15T20:34:22.106Z,98554.50
2023-03-15T20:36:49.282Z,98548.38
2023-03-15T20:39:18.375Z,98560.31
2023-03-15T20:41:45.781Z,98557.16
2023-03-15T20:44:12.899Z,98558.72
2023-03-15T20:46:40.148Z,98557.06
2023-03-15T20:49:07.779Z,98564.09
2023-03-15T20:51:35.212Z,98561.31
2023-03-15T20:54:02.345Z,98564.91
2023-03-15T20:56:29.761Z,98559.53
2023-03-15T20:58:56.921Z,98568.87
2023-03-15T21:01:25.017Z,98554.38
2023-03-15T21:03:54.649Z,98569.72
2023-03-15T21:06:22.049Z,98556.56
2023-03-15T21:08:49.260Z,98571.28
2023-03-15T21:11:16.827Z,98566.19
2023-03-15T21:13:43.973Z,98564.44
2023-03-15T21:16:12.828Z,98563.72
2023-03-15T21:18:44.800Z,98569.91
2023-03-15T21:21:12.407Z,98566.22
2023-03-15T21:23:39.804Z,98567.72
2023-03-15T21:26:08.448Z,98565.41
2023-03-15T21:28:36.080Z,98563.75
2023-03-15T21:31:03.973Z,98562.47
2023-03-15T21:33:31.850Z,98563.28
2023-03-15T21:35:59.818Z,98570.63
2023-03-15T21:38:28.288Z,98570.03
2023-03-15T21:40:59.317Z,98577.28
2023-03-15T21:43:28.288Z,98574.88
2023-03-15T21:45:59.645Z,98573.09
2023-03-15T21:48:27.751Z,98582.63
2023-03-15T21:50:54.972Z,98570.69
2023-03-15T21:53:22.139Z,98571.38
2023-03-15T21:55:49.768Z,98570.63
2023-03-15T21:58:17.934Z,98582.81
2023-03-15T22:00:45.073Z,98576.34
2023-03-15T22:03:14.104Z,98582.06
2023-03-15T22:05:41.880Z,98576.91
2023-03-15T22:08:08.966Z,98584.66
2023-03-15T22:10:36.392Z,98580.22
2023-03-15T22:13:04.106Z,98584.56
2023-03-15T22:15:31.233Z,98585.25
2023-03-15T22:17:58.585Z,98585.34
2023-03-15T22:20:26.008Z,98586.56
2023-03-15T22:22:53.382Z,98595.06
2023-03-15T22:25:20.823Z,98592.91
2023-03-15T22:27:47.914Z,98593.28
2023-03-15T22:30:15.870Z,98596.03
2023-03-15T22:32:44.406Z,98593.97
2023-03-15T22:35:12.996Z,98600.22
2023-03-15T22:37:40.702Z,98594.16
2023-03-15T22:40:09.581Z,98597.81
2023-03-15T22:42:37.802Z,98606.47
2023-03-15T22:45:05.604Z,98596.81
2023-03-15T22:47:33.074Z,98590.97
2023-03-15T22:50:00.733Z,98589.50
2023-03-15T22:52:28.396Z,98600.03
2023-03-15T22:54:55.788Z,98600.19
2023-03-15T22:57:22.944Z,98603.88
2023-03-15T22:59:50.056Z,98600.78
2023-03-15T23:02:17.614Z,98597.09
2023-03-15T23:04:45.911Z,98600.84
2023-03-15T23:07:13.417Z,98603.63
2023-03-15T23:09:42.050Z,98601.81
2023-03-15T23:12:09.422Z,98617.62
2023-03-15T23:14:36.925Z,98605.47
2023-03-15T23:17:04.369Z,98601.53
2023-03-15T23:19:34.027Z,98602.47
2023-03-15T23:22:04.640Z,98601.53
2023-03-15T23:24:35.251Z,98610.22
2023-03-15T23:27:06.651Z,98621.56
2023-03-15T23:29:47.158Z,98610.22
2023-03-15T23:32:20.726Z,98619.53
2023-03-15T23:34:48.141Z,98629.37
2023-03-15T23:37:15.411Z,98613.72
2023-03-15T23:39:43.356Z,98615.53
2023-03-15T23:42:12.032Z,98615.69
2023-03-15T23:44:39.172Z,98625.38
2023-03-15T23:47:06.634Z,98626.53
2023-03-15T23:49:34.465Z,98632.62
2023-03-15T23:52:05.794Z,98641.38
2023-03-15T23:54:39.507Z,98645.09
2023-03-15T23:57:08.639Z,98638.38
2023-03-15T23:59:36.679Z,98641.03
